createdAt,value
2023-11-03T00:00:25.559Z,77.05
2023-11-03T00:01:27.811Z,77.22
2023-11-03T00:02:29.908Z,77.48
2023-11-03T00:03:32.083Z,77.62
2023-11-03T00:04:37.402Z,77.77
2023-11-03T00:05:39.672Z,77.78
2023-11-03T00:06:43.166Z,77.75
2023-11-03T00:07:45.291Z,77.52
2023-11-03T00:08:47.334Z,77.37
2023-11-03T00:09:49.476Z,77.31
2023-11-03T00:10:52.139Z,77.39
2023-11-03T00:11:54.232Z,77.56
2023-11-03T00:12:56.368Z,77.77
2023-11-03T00:13:58.495Z,77.96
2023-11-03T00:15:00.582Z,78.15
2023-11-03T00:16:04.102Z,78.13
2023-11-03T00:17:06.239Z,78.08
2023-11-03T00:18:08.257Z,78.14
2023-11-03T00:19:10.586Z,78.24
2023-11-03T00:20:14.494Z,78.33
2023-11-03T00:21:16.504Z,78.37
2023-11-03T00:22:18.749Z,78.33
2023-11-03T00:23:21.571Z,78.35
2023-11-03T00:24:23.693Z,78.45
2023-11-03T00:25:25.860Z,78.66
2023-11-03T00:26:28.075Z,78.76
2023-11-03T00:27:30.296Z,78.85
2023-11-03T00:28:32.535Z,78.80
2023-11-03T00:29:34.545Z,78.76
2023-11-03T00:30:36.922Z,78.71
2023-11-03T00:31:43.920Z,78.65
2023-11-03T00:32:46.164Z,78.39
2023-11-03T00:33:48.653Z,78.31
2023-11-03T00:34:50.870Z,78.12
2023-11-03T00:35:53.016Z,77.80
2023-11-03T00:36:55.351Z,77.69
2023-11-03T00:37:57.426Z,77.65
2023-11-03T00:38:59.461Z,77.87
2023-11-03T00:40:03.168Z,78.29
2023-11-03T00:41:05.601Z,78.43
2023-11-03T00:42:07.906Z,78.71
2023-11-03T00:43:10.030Z,78.82
2023-11-03T00:44:12.448Z,78.69
2023-11-03T00:45:15.128Z,78.54
2023-11-03T00:46:17.742Z,78.51
2023-11-03T00:47:19.851Z,78.41
2023-11-03T00:48:22.002Z,78.40
2023-11-03T00:49:24.268Z,78.49
2023-11-03T00:50:26.662Z,78.61
2023-11-03T00:51:28.856Z,78.72
2023-11-03T00:52:30.806Z,78.74
2023-11-03T00:53:32.908Z,78.78
2023-11-03T00:54:35.800Z,78.77
2023-11-03T00:55:37.894Z,78.62
2023-11-03T00:56:40.174Z,78.52
2023-11-03T00:57:42.252Z,78.28
2023-11-03T00:58:44.310Z,78.31
2023-11-03T00:59:46.393Z,78.37
2023-11-03T01:00:48.643Z,78.49
2023-11-03T01:01:50.917Z,78.52
2023-11-03T01:02:53.096Z,78.40
2023-11-03T01:03:55.318Z,78.39
2023-11-03T01:04:57.670Z,78.52
2023-11-03T01:05:59.827Z,78.60
2023-11-03T01:07:01.809Z,78.68
2023-11-03T01:08:04.306Z,78.86
2023-11-03T01:09:06.310Z,79.03
2023-11-03T01:10:09.565Z,79.22
2023-11-03T01:11:13.076Z,79.41
2023-11-03T01:12:15.332Z,79.66
2023-11-03T01:13:17.492Z,79.84
2023-11-03T01:14:19.482Z,80.15
2023-11-03T01:15:21.714Z,80.45
2023-11-03T01:16:24.002Z,80.59
2023-11-03T01:17:26.256Z,80.80
2023-11-03T01:18:28.409Z,80.91
2023-11-03T01:19:30.748Z,80.95
2023-11-03T01:20:33.917Z,80.87
2023-11-03T01:21:36.045Z,80.93
2023-11-03T01:22:38.191Z,80.81
2023-11-03T01:23:40.816Z,80.76
2023-11-03T01:24:43.057Z,80.69
2023-11-03T01:25:45.382Z,80.62
2023-11-03T01:26:47.702Z,80.49
2023-11-03T01:27:49.814Z,80.34
2023-11-03T01:28:54.961Z,80.27
2023-11-03T01:29:57.175Z,80.24
2023-11-03T01:30:59.321Z,80.13
2023-11-03T01:32:01.390Z,80.09
2023-11-03T01:33:03.604Z,80.09
2023-11-03T01:34:05.817Z,80.11
2023-11-03T01:35:08.695Z,80.04
2023-11-03T01:36:11.362Z,80.02
2023-11-03T01:37:13.631Z,79.94
2023-11-03T01:38:15.783Z,79.91
2023-11-03T01:39:17.835Z,79.91
2023-11-03T01:40:20.410Z,79.99
2023-11-03T01:41:22.444Z,80.05
2023-11-03T01:42:24.569Z,79.96
2023-11-03T01:43:27.465Z,79.91
2023-11-03T01:44:29.634Z,79.96
2023-11-03T01:45:31.755Z,79.99
2023-11-03T01:46:36.646Z,79.96
2023-11-03T01:47:38.809Z,79.86
2023-11-03T01:48:40.936Z,79.94
2023-11-03T01:49:43.175Z,80.00
2023-11-03T01:50:45.700Z,80.05
2023-11-03T01:51:48.139Z,80.00
2023-11-03T01:52:51.326Z,79.92
2023-11-03T01:53:53.627Z,79.88
2023-11-03T01:54:55.887Z,79.84
2023-11-03T01:55:58.588Z,79.79
2023-11-03T01:57:00.934Z,79.80
2023-11-03T01:58:03.051Z,79.78
2023-11-03T01:59:06.295Z,79.70
2023-11-03T02:00:09.830Z,79.69
2023-11-03T02:01:12.224Z,79.65
2023-11-03T02:02:14.786Z,79.69
2023-11-03T02:03:17.109Z,79.65
2023-11-03T02:04:20.088Z,79.58
2023-11-03T02:05:22.260Z,79.48
2023-11-03T02:06:24.683Z,79.35
2023-11-03T02:07:26.902Z,79.16
2023-11-03T02:08:29.186Z,78.99
2023-11-03T02:09:31.358Z,78.82
2023-11-03T02:10:33.731Z,78.69
2023-11-03T02:11:39.624Z,78.72
2023-11-03T02:12:41.870Z,78.78
2023-11-03T02:13:44.822Z,78.88
2023-11-03T02:14:46.937Z,78.94
2023-11-03T02:15:49.165Z,79.12
2023-11-03T02:16:51.618Z,79.09
2023-11-03T02:17:53.920Z,79.14
2023-11-03T02:18:56.459Z,79.12
2023-11-03T02:19:58.892Z,79.07
2023-11-03T02:21:01.080Z,79.07
2023-11-03T02:22:03.251Z,79.07
2023-11-03T02:23:05.485Z,78.99
2023-11-03T02:24:08.306Z,78.99
2023-11-03T02:25:10.612Z,78.92
2023-11-03T02:26:13.841Z,78.87
2023-11-03T02:27:15.919Z,78.87
2023-11-03T02:28:17.974Z,78.85
2023-11-03T02:29:20.026Z,78.87
2023-11-03T02:30:22.512Z,78.91
2023-11-03T02:31:24.623Z,78.96
2023-11-03T02:32:26.590Z,79.05
2023-11-03T02:33:28.797Z,79.17
2023-11-03T02:34:31.052Z,79.21
2023-11-03T02:35:33.019Z,79.35
2023-11-03T02:36:35.407Z,79.43
2023-11-03T02:37:37.605Z,79.50
2023-11-03T02:38:39.723Z,79.53
2023-11-03T02:39:42.268Z,79.57
2023-11-03T02:40:45.027Z,79.54
2023-11-03T02:41:46.969Z,79.58
2023-11-03T02:42:49.032Z,79.70
2023-11-03T02:43:51.073Z,79.67
2023-11-03T02:44:53.307Z,79.70
2023-11-03T02:45:55.556Z,79.77
2023-11-03T02:46:57.757Z,79.78
2023-11-03T02:47:59.886Z,79.79
2023-11-03T02:49:02.007Z,79.79
2023-11-03T02:50:05.708Z,79.74
2023-11-03T02:51:07.871Z,79.86
2023-11-03T02:52:09.994Z,79.93
2023-11-03T02:53:12.525Z,79.79
2023-11-03T02:54:14.628Z,79.61
2023-11-03T02:55:16.877Z,79.49
2023-11-03T02:56:26.313Z,79.43
2023-11-03T02:57:28.438Z,79.26
2023-11-03T02:58:37.915Z,79.00
2023-11-03T02:59:39.998Z,78.97
2023-11-03T03:00:42.708Z,78.69
2023-11-03T03:01:44.863Z,78.59
2023-11-03T03:02:46.982Z,78.61
2023-11-03T03:03:49.076Z,78.45
2023-11-03T03:04:51.229Z,78.25
2023-11-03T03:05:53.335Z,78.12
2023-11-03T03:06:55.677Z,78.07
2023-11-03T03:07:57.615Z,78.22
2023-11-03T03:08:59.675Z,78.46
2023-11-03T03:10:01.948Z,78.61
2023-11-03T03:11:04.113Z,78.75
2023-11-03T03:12:06.505Z,78.82
2023-11-03T03:13:08.832Z,78.78
2023-11-03T03:14:10.894Z,78.93
2023-11-03T03:15:12.869Z,79.07
2023-11-03T03:16:19.440Z,79.26
2023-11-03T03:17:22.538Z,79.27
2023-11-03T03:18:24.788Z,79.49
2023-11-03T03:19:26.887Z,79.73
2023-11-03T03:20:29.034Z,79.72
2023-11-03T03:21:31.167Z,79.67
2023-11-03T03:22:33.354Z,79.54
2023-11-03T03:23:35.432Z,79.47
2023-11-03T03:24:37.500Z,79.47
2023-11-03T03:25:39.877Z,79.67
2023-11-03T03:26:42.158Z,79.68
2023-11-03T03:27:44.389Z,79.75
2023-11-03T03:28:46.490Z,79.87
2023-11-03T03:29:48.535Z,79.91
2023-11-03T03:30:50.946Z,79.95
2023-11-03T03:31:53.198Z,79.89
2023-11-03T03:32:55.426Z,79.69
2023-11-03T03:33:58.140Z,79.58
2023-11-03T03:35:00.426Z,79.55
2023-11-03T03:36:02.757Z,79.66
2023-11-03T03:37:04.826Z,79.76
2023-11-03T03:38:06.911Z,79.92
2023-11-03T03:39:09.008Z,79.99
2023-11-03T03:40:14.792Z,80.07
2023-11-03T03:41:16.893Z,80.07
2023-11-03T03:42:19.102Z,80.13
2023-11-03T03:43:21.257Z,80.20
2023-11-03T03:44:23.473Z,80.21
2023-11-03T03:45:25.583Z,80.29
2023-11-03T03:46:28.543Z,80.29
2023-11-03T03:47:30.724Z,80.21
2023-11-03T03:48:32.969Z,79.96
2023-11-03T03:49:35.820Z,79.78
2023-11-03T03:50:38.135Z,79.59
2023-11-03T03:51:40.231Z,79.59
2023-11-03T03:52:42.225Z,79.76
2023-11-03T03:53:44.337Z,79.90
2023-11-03T03:54:46.418Z,79.97
2023-11-03T03:55:48.301Z,80.07
2023-11-03T03:56:50.520Z,80.17
2023-11-03T03:57:52.793Z,80.20
2023-11-03T03:58:54.900Z,80.15
2023-11-03T03:59:57.091Z,80.16
2023-11-03T04:00:59.191Z,80.25
2023-11-03T04:02:01.459Z,80.17
2023-11-03T04:03:03.657Z,80.03
2023-11-03T04:04:06.804Z,79.98
2023-11-03T04:05:09.174Z,79.86
2023-11-03T04:06:11.506Z,79.78
2023-11-03T04:07:13.635Z,79.71
2023-11-03T04:08:15.730Z,79.58
2023-11-03T04:09:17.777Z,79.38
2023-11-03T04:10:19.985Z,79.13
2023-11-03T04:11:22.130Z,78.94
2023-11-03T04:12:24.259Z,78.87
2023-11-03T04:13:26.479Z,78.86
2023-11-03T04:14:28.588Z,78.92
2023-11-03T04:15:30.623Z,78.76
2023-11-03T04:16:34.226Z,78.53
2023-11-03T04:17:36.398Z,78.41
2023-11-03T04:18:40.016Z,78.38
2023-11-03T04:19:42.364Z,78.42
2023-11-03T04:20:44.830Z,78.59
2023-11-03T04:21:46.896Z,78.60
2023-11-03T04:22:48.959Z,78.54
2023-11-03T04:23:51.064Z,78.54
2023-11-03T04:24:53.163Z,78.47
2023-11-03T04:25:55.274Z,78.54
2023-11-03T04:26:57.454Z,78.62
2023-11-03T04:27:59.546Z,78.55
2023-11-03T04:29:01.751Z,78.51
2023-11-03T04:30:04.672Z,78.55
2023-11-03T04:31:06.800Z,78.51
2023-11-03T04:32:08.890Z,78.30
2023-11-03T04:33:11.073Z,78.19
2023-11-03T04:34:13.337Z,78.18
2023-11-03T04:35:15.670Z,78.22
2023-11-03T04:36:17.961Z,78.29
2023-11-03T04:37:20.032Z,78.27
2023-11-03T04:38:22.071Z,78.27
2023-11-03T04:39:25.846Z,78.27
2023-11-03T04:40:28.298Z,78.34
2023-11-03T04:41:30.689Z,78.37
2023-11-03T04:42:32.798Z,78.65
2023-11-03T04:43:34.913Z,79.00
2023-11-03T04:44:37.175Z,79.21
2023-11-03T04:45:39.273Z,79.47
2023-11-03T04:46:41.671Z,79.63
2023-11-03T04:47:44.038Z,79.44
2023-11-03T04:48:46.212Z,79.54
2023-11-03T04:49:48.369Z,79.60
2023-11-03T04:50:50.799Z,79.64
2023-11-03T04:51:52.930Z,79.61
2023-11-03T04:52:55.055Z,79.36
2023-11-03T04:53:57.137Z,79.20
2023-11-03T04:54:59.254Z,79.12
2023-11-03T04:56:01.366Z,79.30
2023-11-03T04:57:03.488Z,79.35
2023-11-03T04:58:05.575Z,79.30
2023-11-03T04:59:07.610Z,79.13
2023-11-03T05:00:12.066Z,79.22
2023-11-03T05:01:14.409Z,79.65
2023-11-03T05:02:16.583Z,79.70
2023-11-03T05:03:18.714Z,79.59
2023-11-03T05:04:20.784Z,79.54
2023-11-03T05:05:23.027Z,79.50
2023-11-03T05:06:25.463Z,79.35
2023-11-03T05:07:27.504Z,79.32
2023-11-03T05:08:29.605Z,79.34
2023-11-03T05:09:31.719Z,79.77
2023-11-03T05:10:34.114Z,79.82
2023-11-03T05:11:36.555Z,79.69
2023-11-03T05:12:38.649Z,79.73
2023-11-03T05:13:40.763Z,79.87
2023-11-03T05:14:42.825Z,79.86
2023-11-03T05:15:44.928Z,79.88
2023-11-03T05:16:47.195Z,80.01
2023-11-03T05:17:49.400Z,80.21
2023-11-03T05:18:51.558Z,80.20
2023-11-03T05:19:53.664Z,80.34
2023-11-03T05:20:55.811Z,80.59
2023-11-03T05:21:57.978Z,80.63
2023-11-03T05:22:59.903Z,80.61
2023-11-03T05:24:02.693Z,80.80
2023-11-03T05:25:06.658Z,80.90
2023-11-03T05:27:39.268Z,81.12
2023-11-03T05:28:41.534Z,81.20
2023-11-03T05:29:43.649Z,81.22
2023-11-03T05:30:46.197Z,81.21
2023-11-03T05:31:48.698Z,81.18
2023-11-03T05:32:51.002Z,81.06
2023-11-03T05:33:53.137Z,81.06
2023-11-03T05:34:55.261Z,81.04
2023-11-03T05:35:58.305Z,81.10
2023-11-03T05:37:00.915Z,81.04
2023-11-03T05:38:04.365Z,81.08
2023-11-03T05:39:06.509Z,81.14
2023-11-03T05:40:10.814Z,81.20
2023-11-03T05:41:13.129Z,81.21
2023-11-03T05:42:15.277Z,81.33
2023-11-03T05:43:17.290Z,81.42
2023-11-03T05:44:19.402Z,81.45
2023-11-03T05:45:21.549Z,81.42
2023-11-03T05:46:24.222Z,81.31
2023-11-03T05:47:26.387Z,81.18
2023-11-03T05:48:29.486Z,81.11
2023-11-03T05:49:32.107Z,81.08
2023-11-03T05:50:34.720Z,81.08
2023-11-03T05:51:37.059Z,81.09
2023-11-03T05:52:39.264Z,81.20
2023-11-03T05:53:41.571Z,81.26
2023-11-03T05:54:43.546Z,81.08
2023-11-03T05:55:45.692Z,81.01
2023-11-03T05:56:48.319Z,80.98
2023-11-03T05:57:50.837Z,80.88
2023-11-03T05:58:52.958Z,80.87
2023-11-03T05:59:54.979Z,80.77
2023-11-03T06:00:57.716Z,80.58
2023-11-03T06:01:59.912Z,80.51
2023-11-03T06:03:02.127Z,80.42
2023-11-03T06:04:04.611Z,80.33
2023-11-03T06:05:08.170Z,80.24
2023-11-03T06:06:11.048Z,80.27
2023-11-03T06:07:13.434Z,80.03
2023-11-03T06:08:15.829Z,79.88
2023-11-03T06:09:17.938Z,79.75
2023-11-03T06:10:20.630Z,79.68
2023-11-03T06:11:22.927Z,79.55
2023-11-03T06:12:25.130Z,79.52
2023-11-03T06:13:27.534Z,79.47
2023-11-03T06:14:29.669Z,79.49
2023-11-03T06:15:31.880Z,79.53
2023-11-03T06:16:34.177Z,79.57
2023-11-03T06:17:36.406Z,79.57
2023-11-03T06:18:38.336Z,79.49
2023-11-03T06:19:40.527Z,79.45
2023-11-03T06:20:42.807Z,79.33
2023-11-03T06:21:45.089Z,79.30
2023-11-03T06:22:47.265Z,79.33
2023-11-03T06:23:49.433Z,79.24
2023-11-03T06:24:51.872Z,79.19
2023-11-03T06:25:53.988Z,79.20
2023-11-03T06:26:56.422Z,79.17
2023-11-03T06:27:58.681Z,79.12
2023-11-03T06:29:00.804Z,79.15
2023-11-03T06:30:03.924Z,79.11
2023-11-03T06:31:06.456Z,79.14
2023-11-03T06:32:08.808Z,79.13
2023-11-03T06:33:11.122Z,79.08
2023-11-03T06:34:13.284Z,79.09
2023-11-03T06:35:15.466Z,79.02
2023-11-03T06:36:17.657Z,78.98
2023-11-03T06:37:19.809Z,78.93
2023-11-03T06:38:21.911Z,78.91
2023-11-03T06:39:23.941Z,78.88
2023-11-03T06:40:26.607Z,78.78
2023-11-03T06:41:28.783Z,78.72
2023-11-03T06:42:30.808Z,78.72
2023-11-03T06:43:33.961Z,78.67
2023-11-03T06:44:36.095Z,78.55
2023-11-03T06:45:38.152Z,78.56
2023-11-03T06:46:40.860Z,78.57
2023-11-03T06:47:43.096Z,78.62
2023-11-03T06:48:45.499Z,78.43
2023-11-03T06:49:47.760Z,78.31
2023-11-03T06:50:50.149Z,78.22
2023-11-03T06:51:52.621Z,78.22
2023-11-03T06:52:55.342Z,78.13
2023-11-03T06:53:57.800Z,78.21
2023-11-03T06:55:00.025Z,78.21
2023-11-03T06:56:02.398Z,78.25
2023-11-03T06:57:05.697Z,78.23
2023-11-03T06:58:08.301Z,78.02
2023-11-03T06:59:10.647Z,77.95
2023-11-03T07:00:14.570Z,77.82
2023-11-03T07:01:16.866Z,77.68
2023-11-03T07:02:19.288Z,77.60
2023-11-03T07:03:21.476Z,77.60
2023-11-03T07:04:23.739Z,77.57
2023-11-03T07:05:25.682Z,77.44
2023-11-03T07:06:28.014Z,77.59
2023-11-03T07:07:30.136Z,77.54
2023-11-03T07:08:32.358Z,77.54
2023-11-03T07:09:34.478Z,77.51
2023-11-03T07:10:36.948Z,77.49
2023-11-03T07:11:39.158Z,77.66
2023-11-03T07:12:41.286Z,77.64
2023-11-03T07:13:50.806Z,77.54
2023-11-03T07:14:53.169Z,77.77
2023-11-03T07:15:55.681Z,77.61
2023-11-03T07:16:58.431Z,77.21
2023-11-03T07:18:00.582Z,76.89
2023-11-03T07:19:02.810Z,76.89
2023-11-03T07:20:06.382Z,77.02
2023-11-03T07:21:09.793Z,77.11
2023-11-03T07:22:12.142Z,76.84
2023-11-03T07:23:14.407Z,76.68
2023-11-03T07:24:17.030Z,76.90
2023-11-03T07:25:19.274Z,76.92
2023-11-03T07:26:21.474Z,76.50
2023-11-03T07:27:23.650Z,76.46
2023-11-03T07:28:26.705Z,76.43
2023-11-03T07:29:29.113Z,76.30
2023-11-03T07:30:31.368Z,76.26
2023-11-03T07:31:34.564Z,76.30
2023-11-03T07:32:37.304Z,76.37
2023-11-03T07:33:40.876Z,76.33
2023-11-03T07:34:43.522Z,76.30
2023-11-03T07:35:46.153Z,76.27
2023-11-03T07:36:48.512Z,76.29
2023-11-03T07:37:50.910Z,76.22
2023-11-03T07:38:53.086Z,76.03
2023-11-03T07:39:55.241Z,75.95
2023-11-03T07:40:57.524Z,75.87
2023-11-03T07:41:59.541Z,75.60
2023-11-03T07:43:01.761Z,75.55
2023-11-03T07:44:04.810Z,75.58
2023-11-03T07:45:08.457Z,75.51
2023-11-03T07:46:10.931Z,75.29
2023-11-03T07:47:13.216Z,75.10
2023-11-03T07:48:15.846Z,74.98
2023-11-03T07:49:18.060Z,75.16
2023-11-03T07:50:20.488Z,74.89
2023-11-03T07:51:22.698Z,74.66
2023-11-03T07:52:25.113Z,74.69
2023-11-03T07:53:27.297Z,74.59
2023-11-03T07:54:29.452Z,74.31
2023-11-03T07:55:31.596Z,74.23
2023-11-03T07:56:36.939Z,74.23
2023-11-03T07:57:39.304Z,73.89
2023-11-03T07:58:41.457Z,73.91
2023-11-03T07:59:43.505Z,73.91
2023-11-03T08:00:45.791Z,73.87
2023-11-03T08:01:50.801Z,73.73
2023-11-03T08:02:53.042Z,73.72
2023-11-03T08:03:55.443Z,73.34
2023-11-03T08:04:57.804Z,73.16
2023-11-03T08:06:00.020Z,73.01
2023-11-03T08:07:02.366Z,73.01
2023-11-03T08:08:04.821Z,73.02
2023-11-03T08:09:06.999Z,72.95
2023-11-03T08:10:10.084Z,72.81
2023-11-03T08:11:12.596Z,72.61
2023-11-03T08:12:14.834Z,72.66
2023-11-03T08:13:16.983Z,72.51
2023-11-03T08:14:19.205Z,71.74
2023-11-03T08:15:21.320Z,71.14
2023-11-03T08:16:23.947Z,70.74
2023-11-03T08:17:26.069Z,70.36
2023-11-03T08:18:28.360Z,70.20
2023-11-03T08:19:30.652Z,69.91
2023-11-03T08:20:33.066Z,70.09
2023-11-03T08:21:35.504Z,69.95
2023-11-03T08:22:37.895Z,69.47
2023-11-03T08:23:40.024Z,68.75
2023-11-03T08:24:42.391Z,68.68
2023-11-03T08:25:44.694Z,68.81
2023-11-03T08:26:47.005Z,68.91
2023-11-03T08:27:49.167Z,68.78
2023-11-03T08:28:51.843Z,68.87
2023-11-03T08:29:53.916Z,68.57
2023-11-03T08:30:58.085Z,68.42
2023-11-03T08:32:02.029Z,68.52
2023-11-03T08:33:04.285Z,68.60
2023-11-03T08:34:06.637Z,68.59
2023-11-03T08:35:08.871Z,68.50
2023-11-03T08:36:11.194Z,68.31
2023-11-03T08:37:13.581Z,68.20
2023-11-03T08:38:15.823Z,68.01
2023-11-03T08:39:24.377Z,67.92
2023-11-03T08:40:22.911Z,67.83
2023-11-03T08:41:25.086Z,67.93
2023-11-03T08:42:27.186Z,67.22
2023-11-03T08:43:29.401Z,67.26
2023-11-03T08:44:34.367Z,66.70
2023-11-03T08:45:39.849Z,66.47
2023-11-03T08:46:42.088Z,66.43
2023-11-03T08:47:44.287Z,66.35
2023-11-03T08:48:47.494Z,65.55
2023-11-03T08:49:49.592Z,65.05
2023-11-03T08:50:51.944Z,65.12
2023-11-03T08:51:54.210Z,65.17
2023-11-03T08:52:56.537Z,65.26
2023-11-03T08:53:58.721Z,65.64
2023-11-03T08:55:00.921Z,65.65
2023-11-03T08:56:03.420Z,65.36
2023-11-03T08:57:05.512Z,65.15
2023-11-03T08:58:15.614Z,64.92
2023-11-03T08:59:13.112Z,64.75
2023-11-03T09:00:15.841Z,64.91
2023-11-03T09:01:18.051Z,64.81
2023-11-03T09:02:22.590Z,65.23
2023-11-03T09:03:32.413Z,65.56
2023-11-03T09:04:35.017Z,64.71
2023-11-03T09:05:37.239Z,64.83
2023-11-03T09:06:39.641Z,64.31
2023-11-03T09:07:43.011Z,64.35
2023-11-03T09:08:45.205Z,64.50
2023-11-03T09:09:47.472Z,64.85
2023-11-03T09:10:49.711Z,64.58
2023-11-03T09:11:51.915Z,64.65
2023-11-03T09:12:54.063Z,64.64
2023-11-03T09:13:56.114Z,64.74
2023-11-03T09:14:58.283Z,64.72
2023-11-03T09:16:00.476Z,65.12
2023-11-03T09:17:02.633Z,65.24
2023-11-03T09:18:04.936Z,64.80
2023-11-03T09:19:07.117Z,64.62
2023-11-03T09:20:10.865Z,64.34
2023-11-03T09:21:13.739Z,64.70
2023-11-03T09:22:23.145Z,65.14
2023-11-03T09:23:23.695Z,65.17
2023-11-03T09:24:25.938Z,64.97
2023-11-03T09:25:28.376Z,65.14
2023-11-03T09:26:30.659Z,65.18
2023-11-03T09:27:32.855Z,65.25
2023-11-03T09:28:35.031Z,65.29
2023-11-03T09:29:37.205Z,65.41
2023-11-03T09:30:39.570Z,65.05
2023-11-03T09:31:41.693Z,64.91
2023-11-03T09:32:44.110Z,65.03
2023-11-03T09:33:46.601Z,64.89
2023-11-03T09:34:51.166Z,64.41
2023-11-03T09:35:53.520Z,64.59
2023-11-03T09:36:55.848Z,64.35
2023-11-03T09:37:58.292Z,63.85
2023-11-03T09:39:00.566Z,63.17
2023-11-03T09:40:03.084Z,63.51
2023-11-03T09:41:07.379Z,62.79
2023-11-03T09:42:11.493Z,62.68
2023-11-03T09:43:13.829Z,62.36
2023-11-03T09:44:16.075Z,62.98
2023-11-03T09:45:19.005Z,62.51
2023-11-03T09:46:21.407Z,61.97
2023-11-03T09:47:24.856Z,61.81
2023-11-03T09:48:28.874Z,61.90
2023-11-03T09:49:31.672Z,61.89
2023-11-03T09:50:34.275Z,61.73
2023-11-03T09:51:38.083Z,61.54
2023-11-03T09:52:47.322Z,61.83
2023-11-03T09:53:52.066Z,62.32
2023-11-03T09:54:54.976Z,62.72
2023-11-03T09:55:58.073Z,63.35
2023-11-03T09:58:12.517Z,63.80
2023-11-03T09:59:14.941Z,64.16
2023-11-03T10:00:20.316Z,64.19
2023-11-03T10:01:22.722Z,64.16
2023-11-03T10:02:26.190Z,64.43
2023-11-03T10:03:28.459Z,64.53
2023-11-03T10:04:30.829Z,64.26
2023-11-03T10:05:33.004Z,63.55
2023-11-03T10:06:36.709Z,63.33
2023-11-03T10:07:39.084Z,62.55
2023-11-03T10:08:42.035Z,61.94
2023-11-03T10:09:44.247Z,61.92
2023-11-03T10:10:46.949Z,61.89
2023-11-03T10:11:49.062Z,61.84
2023-11-03T10:12:51.365Z,62.03
2023-11-03T10:13:55.399Z,62.02
2023-11-03T10:14:57.551Z,61.66
2023-11-03T10:15:59.833Z,62.08
2023-11-03T10:17:02.077Z,61.89
2023-11-03T10:18:04.508Z,61.62
2023-11-03T10:19:07.175Z,61.57
2023-11-03T10:20:10.461Z,61.37
2023-11-03T10:21:12.486Z,61.28
2023-11-03T10:22:14.702Z,61.47
2023-11-03T10:23:17.188Z,61.78
2023-11-03T10:24:19.400Z,61.52
2023-11-03T10:25:21.547Z,60.21
2023-11-03T10:26:23.851Z,59.63
2023-11-03T10:27:26.176Z,59.65
2023-11-03T10:28:30.285Z,59.64
2023-11-03T10:29:32.625Z,59.58
2023-11-03T10:30:34.918Z,59.86
2023-11-03T10:31:37.034Z,59.92
2023-11-03T10:32:39.451Z,59.92
2023-11-03T10:33:42.473Z,59.85
2023-11-03T10:34:46.067Z,59.86
2023-11-03T10:35:48.868Z,59.82
2023-11-03T10:36:54.917Z,59.84
2023-11-03T10:37:59.761Z,59.96
2023-11-03T10:39:05.116Z,60.14
2023-11-03T10:40:09.357Z,59.97
2023-11-03T10:41:12.132Z,60.22
2023-11-03T10:42:16.093Z,60.51
2023-11-03T10:43:20.295Z,60.64
2023-11-03T10:44:24.353Z,60.81
2023-11-03T10:45:29.619Z,60.94
2023-11-03T10:46:37.343Z,60.72
2023-11-03T10:49:27.779Z,60.39
2023-11-03T10:50:35.323Z,60.57
2023-11-03T10:51:40.234Z,60.01
2023-11-03T10:54:28.579Z,59.15
2023-11-03T10:55:34.807Z,59.41
2023-11-03T10:56:56.066Z,58.99
2023-11-03T10:57:42.851Z,59.21
2023-11-03T10:58:45.657Z,59.32
2023-11-03T10:59:50.392Z,59.33
2023-11-03T11:01:04.831Z,59.50
2023-11-03T11:02:14.096Z,59.42
2023-11-03T11:03:28.190Z,59.42
2023-11-03T11:04:53.921Z,59.75
2023-11-03T11:06:02.306Z,59.44
2023-11-03T11:07:07.732Z,59.37
2023-11-03T11:08:10.808Z,59.37
2023-11-03T11:10:38.217Z,59.61
2023-11-03T11:11:40.508Z,60.01
2023-11-03T11:12:49.433Z,59.69
2023-11-03T11:13:51.839Z,59.84
2023-11-03T11:14:54.077Z,59.65
2023-11-03T11:16:00.202Z,59.41
2023-11-03T11:17:02.774Z,59.51
2023-11-03T11:18:18.883Z,59.66
2023-11-03T11:20:38.404Z,58.91
2023-11-03T11:21:38.653Z,59.31
2023-11-03T11:23:52.821Z,59.98
2023-11-03T11:24:56.010Z,60.42
2023-11-03T11:26:02.970Z,59.95
2023-11-03T11:28:35.666Z,59.37
2023-11-03T11:29:38.197Z,59.75
2023-11-03T11:30:40.472Z,59.69
2023-11-03T11:31:43.623Z,59.51
2023-11-03T11:34:02.079Z,59.48
2023-11-03T11:36:20.703Z,59.40
2023-11-03T11:37:28.160Z,58.84
2023-11-03T11:38:30.496Z,59.19
2023-11-03T11:39:32.730Z,58.91
2023-11-03T11:40:35.115Z,59.17
2023-11-03T11:41:38.325Z,59.53
2023-11-03T11:42:42.321Z,59.43
2023-11-03T11:43:47.152Z,59.53
2023-11-03T11:44:51.298Z,59.75
2023-11-03T11:45:55.197Z,60.07
2023-11-03T11:46:59.666Z,59.98
2023-11-03T11:48:04.777Z,59.85
2023-11-03T11:49:10.862Z,59.80
2023-11-03T11:50:18.219Z,59.55
2023-11-03T11:51:20.539Z,58.71
2023-11-03T11:52:24.436Z,59.01
2023-11-03T11:53:26.715Z,59.26
2023-11-03T11:54:28.839Z,58.73
2023-11-03T11:55:34.672Z,57.84
2023-11-03T11:56:37.059Z,57.98
2023-11-03T11:57:40.641Z,58.01
2023-11-03T11:58:43.380Z,58.83
2023-11-03T11:59:45.544Z,59.14
2023-11-03T12:00:48.085Z,58.86
2023-11-03T12:01:52.267Z,58.58
2023-11-03T12:02:54.707Z,58.37
2023-11-03T12:04:03.415Z,58.30
2023-11-03T12:05:06.306Z,58.93
2023-11-03T12:06:09.141Z,58.91
2023-11-03T12:07:11.488Z,59.02
2023-11-03T12:08:13.592Z,58.76
2023-11-03T12:09:15.925Z,58.85
2023-11-03T12:10:18.630Z,58.72
2023-11-03T12:11:21.266Z,58.72
2023-11-03T12:12:26.988Z,58.90
2023-11-03T12:13:30.916Z,58.88
2023-11-03T12:14:33.168Z,58.83
2023-11-03T12:15:35.354Z,58.97
2023-11-03T12:16:38.263Z,58.89
2023-11-03T12:17:40.634Z,59.24
2023-11-03T12:18:42.792Z,59.84
2023-11-03T12:19:44.920Z,60.27
2023-11-03T12:21:00.772Z,60.41
2023-11-03T12:22:02.902Z,60.76
2023-11-03T12:23:04.986Z,61.16
2023-11-03T12:24:07.805Z,61.26
2023-11-03T12:25:10.030Z,61.60
2023-11-03T12:26:13.282Z,61.73
2023-11-03T12:27:28.733Z,62.05
2023-11-03T12:28:31.787Z,61.74
2023-11-03T12:29:33.937Z,61.94
2023-11-03T12:32:01.231Z,61.49
2023-11-03T12:33:03.832Z,61.92
2023-11-03T12:34:06.192Z,61.97
2023-11-03T12:35:08.944Z,62.10
2023-11-03T12:36:11.841Z,62.13
2023-11-03T12:37:14.159Z,62.11
2023-11-03T12:38:17.052Z,61.95
2023-11-03T12:39:19.339Z,61.89
2023-11-03T12:40:22.559Z,61.97
2023-11-03T12:41:25.200Z,61.86
2023-11-03T12:42:27.650Z,61.94
2023-11-03T12:43:29.901Z,61.81
2023-11-03T12:44:49.659Z,61.89
2023-11-03T12:45:55.581Z,62.01
2023-11-03T12:46:58.532Z,61.37
2023-11-03T12:48:00.801Z,61.29
2023-11-03T12:50:45.667Z,61.77
2023-11-03T12:51:48.361Z,61.91
2023-11-03T12:53:02.606Z,62.16
2023-11-03T12:54:04.973Z,62.18
2023-11-03T12:55:11.026Z,62.02
2023-11-03T12:56:15.396Z,62.24
2023-11-03T12:57:22.025Z,62.60
2023-11-03T12:58:28.872Z,62.51
2023-11-03T12:59:29.998Z,62.54
2023-11-03T13:02:57.225Z,62.50
2023-11-03T13:03:59.775Z,62.17
2023-11-03T13:05:05.377Z,62.49
2023-11-03T13:07:28.667Z,63.06
2023-11-03T13:08:31.186Z,63.58
2023-11-03T13:09:33.343Z,63.51
2023-11-03T13:10:35.742Z,63.60
2023-11-03T13:11:37.788Z,63.24
2023-11-03T13:12:40.189Z,63.19
2023-11-03T13:13:42.262Z,63.28
2023-11-03T13:14:44.426Z,63.32
2023-11-03T13:15:46.714Z,63.00
2023-11-03T13:16:49.454Z,63.21
2023-11-03T13:17:51.759Z,62.68
2023-11-03T13:18:53.942Z,62.54
2023-11-03T13:19:56.045Z,62.52
2023-11-03T13:20:58.776Z,62.35
2023-11-03T13:22:00.881Z,62.45
2023-11-03T13:23:02.882Z,62.42
2023-11-03T13:24:06.985Z,62.67
2023-11-03T13:25:09.171Z,62.99
2023-11-03T13:26:11.689Z,62.75
2023-11-03T13:27:13.756Z,62.97
2023-11-03T13:28:16.054Z,63.60
2023-11-03T13:29:18.228Z,63.39
2023-11-03T13:30:20.509Z,63.56
2023-11-03T13:31:22.803Z,64.08
2023-11-03T13:32:25.114Z,63.61
2023-11-03T13:33:27.278Z,63.93
2023-11-03T13:34:29.721Z,63.82
2023-11-03T13:35:32.285Z,63.64
2023-11-03T13:36:34.634Z,63.79
2023-11-03T13:37:37.810Z,63.89
2023-11-03T13:38:39.949Z,63.87
2023-11-03T13:39:42.343Z,64.20
2023-11-03T13:40:44.697Z,64.00
2023-11-03T13:41:47.070Z,64.19
2023-11-03T13:42:49.236Z,64.31
2023-11-03T13:43:51.374Z,64.22
2023-11-03T13:44:53.463Z,64.46
2023-11-03T13:45:56.638Z,64.44
2023-11-03T13:47:01.995Z,64.47
2023-11-03T13:48:05.900Z,64.70
2023-11-03T13:49:08.298Z,65.05
2023-11-03T13:50:17.987Z,65.63